createdAt,value
2019-03-20T00:01:01.011Z,3.80
2019-03-20T00:02:53.430Z,3.80
2019-03-20T00:04:49.750Z,3.80
2019-03-20T00:06:40.648Z,3.80
2019-03-20T00:08:32.592Z,3.60
2019-03-20T00:10:24.967Z,3.60
2019-03-20T00:12:17.390Z,3.60
2019-03-20T00:14:09.659Z,3.70
2019-03-20T00:16:03.083Z,3.60
2019-03-20T00:17:55.209Z,3.60
2019-03-20T00:19:47.628Z,3.50
2019-03-20T00:21:39.909Z,3.50
2019-03-20T00:23:32.412Z,3.40
2019-03-20T00:25:24.755Z,3.50
2019-03-20T00:27:16.653Z,3.60
2019-03-20T00:29:08.991Z,3.70
2019-03-20T00:31:01.180Z,3.70
2019-03-20T00:32:53.320Z,3.80
2019-03-20T00:34:46.069Z,3.80
2019-03-20T00:36:38.234Z,3.90
2019-03-20T00:38:30.747Z,3.90
2019-03-20T00:40:22.598Z,3.70
2019-03-20T00:42:14.442Z,3.60
2019-03-20T00:44:06.471Z,3.50
2019-03-20T00:45:58.486Z,3.40
2019-03-20T00:47:50.406Z,3.30
2019-03-20T00:49:42.755Z,3.30
2019-03-20T00:51:35.292Z,3.30
2019-03-20T00:53:27.153Z,3.30
2019-03-20T00:55:19.789Z,3.40
2019-03-20T00:57:11.740Z,3.50
2019-03-20T00:59:04.168Z,3.40
2019-03-20T01:00:56.320Z,3.40
2019-03-20T01:02:48.384Z,3.30
2019-03-20T01:04:40.888Z,3.30
2019-03-20T01:06:33.314Z,3.30
2019-03-20T01:08:26.368Z,3.20
2019-03-20T01:10:22.005Z,3.10
2019-03-20T01:12:14.063Z,3.00
2019-03-20T01:14:06.644Z,2.80
2019-03-20T01:15:58.766Z,2.80
2019-03-20T01:17:50.959Z,2.90
2019-03-20T01:19:43.400Z,2.90
2019-03-20T01:21:35.290Z,2.90
2019-03-20T01:23:27.592Z,2.90
2019-03-20T01:25:19.972Z,2.90
2019-03-20T01:27:12.458Z,2.80
2019-03-20T01:29:04.808Z,2.80
2019-03-20T01:30:57.488Z,2.80
2019-03-20T01:32:49.842Z,2.80
2019-03-20T01:34:42.297Z,2.80
2019-03-20T01:36:34.764Z,2.70
2019-03-20T01:38:26.639Z,2.60
2019-03-20T01:40:18.532Z,2.50
2019-03-20T01:42:10.860Z,2.50
2019-03-20T01:44:03.167Z,2.60
2019-03-20T01:45:55.591Z,2.60
2019-03-20T01:47:48.064Z,2.70
2019-03-20T01:49:40.400Z,2.70
2019-03-20T01:51:32.297Z,2.80
2019-03-20T01:53:24.628Z,2.80
2019-03-20T01:55:16.512Z,2.70
2019-03-20T01:57:08.724Z,2.70
2019-03-20T01:59:00.674Z,2.70
2019-03-20T02:00:52.889Z,2.60
2019-03-20T02:02:45.072Z,2.40
2019-03-20T02:04:37.451Z,2.20
2019-03-20T02:06:29.628Z,2.20
2019-03-20T02:08:21.525Z,2.20
2019-03-20T02:10:14.513Z,2.10
2019-03-20T02:12:06.965Z,2.20
2019-03-20T02:13:59.264Z,2.30
2019-03-20T02:15:52.469Z,2.30
2019-03-20T02:17:44.781Z,2.30
2019-03-20T02:19:38.409Z,2.30
2019-03-20T02:21:30.923Z,2.40
2019-03-20T02:23:23.096Z,2.30
2019-03-20T02:25:15.415Z,2.30
2019-03-20T02:27:08.820Z,2.30
2019-03-20T02:29:01.289Z,2.30
2019-03-20T02:30:53.325Z,2.30
2019-03-20T02:32:45.529Z,2.30
2019-03-20T02:34:38.476Z,2.20
2019-03-20T02:36:30.710Z,2.20
2019-03-20T02:38:22.800Z,2.10
2019-03-20T02:40:15.296Z,2.10
2019-03-20T02:42:07.542Z,2.20
2019-03-20T02:44:00.002Z,2.20
2019-03-20T02:45:52.180Z,2.30
2019-03-20T02:47:44.682Z,2.30
2019-03-20T02:49:37.134Z,2.20
2019-03-20T02:51:29.358Z,2.10
2019-03-20T02:53:21.528Z,2.10
2019-03-20T02:55:14.217Z,2.10
2019-03-20T02:57:06.612Z,2.10
2019-03-20T02:58:58.739Z,2.10
2019-03-20T03:00:51.210Z,2.00
2019-03-20T03:02:43.417Z,1.90
2019-03-20T03:04:35.846Z,2.00
2019-03-20T03:06:28.017Z,2.00
2019-03-20T03:08:20.069Z,1.90
2019-03-20T03:10:16.686Z,1.80
2019-03-20T03:12:09.063Z,1.70
2019-03-20T03:14:01.135Z,1.80
2019-03-20T03:15:53.539Z,1.80
2019-03-20T03:17:45.985Z,1.70
2019-03-20T03:19:37.886Z,1.80
2019-03-20T03:21:30.312Z,1.80
2019-03-20T03:23:22.701Z,1.90
2019-03-20T03:25:15.141Z,1.80
2019-03-20T03:27:07.595Z,1.70
2019-03-20T03:29:00.001Z,1.80
2019-03-20T03:30:52.409Z,1.60
2019-03-20T03:32:44.751Z,1.60
2019-03-20T03:34:37.148Z,1.60
2019-03-20T03:36:31.110Z,1.60
2019-03-20T03:38:23.125Z,1.60
2019-03-20T03:40:15.994Z,1.60
2019-03-20T03:42:07.813Z,1.60
2019-03-20T03:44:01.037Z,1.50
2019-03-20T03:45:52.962Z,1.60
2019-03-20T03:47:44.899Z,1.60
2019-03-20T03:49:37.102Z,1.60
2019-03-20T03:51:30.235Z,1.70
2019-03-20T03:53:22.332Z,1.70
2019-03-20T03:55:14.991Z,1.60
2019-03-20T03:57:07.861Z,1.70
2019-03-20T03:59:00.162Z,1.70
2019-03-20T04:00:52.088Z,1.60
2019-03-20T04:02:44.212Z,1.60
2019-03-20T04:04:36.483Z,1.60
2019-03-20T04:06:35.524Z,1.60
2019-03-20T04:08:22.633Z,1.60
2019-03-20T04:10:15.332Z,1.60
2019-03-20T04:12:07.521Z,1.60
2019-03-20T04:13:59.698Z,1.60
2019-03-20T04:15:52.378Z,1.60
2019-03-20T04:17:44.766Z,1.50
2019-03-20T04:19:38.046Z,1.50
2019-03-20T04:21:30.088Z,1.50
2019-03-20T04:23:22.357Z,1.50
2019-03-20T04:25:14.407Z,1.50
2019-03-20T04:27:06.924Z,1.50
2019-03-20T04:28:59.048Z,1.60
2019-03-20T04:30:52.385Z,1.70
2019-03-20T04:32:44.336Z,1.80
2019-03-20T04:34:36.508Z,1.90
2019-03-20T04:36:28.710Z,1.90
2019-03-20T04:38:20.808Z,1.80
2019-03-20T04:40:16.382Z,1.60
2019-03-20T04:42:08.742Z,1.60
2019-03-20T04:44:01.140Z,1.50
2019-03-20T04:45:53.974Z,1.50
2019-03-20T04:47:45.864Z,1.60
2019-03-20T04:49:37.925Z,1.60
2019-03-20T04:51:30.121Z,1.50
2019-03-20T04:53:22.391Z,1.50
2019-03-20T04:55:14.698Z,1.50
2019-03-20T04:57:07.045Z,1.40
2019-03-20T04:58:59.165Z,1.50
2019-03-20T05:00:51.008Z,1.50
2019-03-20T05:02:43.390Z,1.40
2019-03-20T05:04:35.312Z,1.50
2019-03-20T05:06:27.821Z,1.40
2019-03-20T05:08:19.714Z,1.50
2019-03-20T05:10:12.953Z,1.50
2019-03-20T05:12:05.403Z,1.50
2019-03-20T05:13:57.658Z,1.40
2019-03-20T05:15:50.024Z,1.40
2019-03-20T05:17:42.207Z,1.60
2019-03-20T05:19:35.376Z,1.60
2019-03-20T05:21:27.730Z,1.60
2019-03-20T05:23:19.840Z,1.70
2019-03-20T05:25:12.008Z,1.70
2019-03-20T05:27:04.339Z,1.70
2019-03-20T05:28:56.756Z,1.70
2019-03-20T05:30:48.890Z,1.80
2019-03-20T05:32:41.213Z,1.60
2019-03-20T05:34:33.320Z,1.50
2019-03-20T05:36:25.530Z,1.50
2019-03-20T05:38:17.425Z,1.50
2019-03-20T05:40:16.232Z,1.60
2019-03-20T05:42:08.211Z,1.60
2019-03-20T05:44:00.278Z,1.60
2019-03-20T05:45:52.165Z,1.60
2019-03-20T05:47:44.452Z,1.60
2019-03-20T05:49:36.936Z,1.60
2019-03-20T05:51:29.078Z,1.60
2019-03-20T05:53:21.233Z,1.60
2019-03-20T05:55:13.441Z,1.50
2019-03-20T05:57:05.630Z,1.60
2019-03-20T05:58:58.231Z,1.60
2019-03-20T06:00:50.719Z,1.60
2019-03-20T06:02:43.432Z,1.60
2019-03-20T06:04:35.715Z,1.60
2019-03-20T06:06:28.007Z,1.70
2019-03-20T06:08:20.187Z,1.80
2019-03-20T06:10:16.439Z,1.80
2019-03-20T06:12:08.262Z,1.90
2019-03-20T06:14:00.467Z,1.90
2019-03-20T06:15:52.802Z,2.00
2019-03-20T06:17:46.873Z,2.00
2019-03-20T06:19:38.867Z,2.00
2019-03-20T06:21:31.014Z,2.10
2019-03-20T06:23:23.264Z,2.10
2019-03-20T06:25:16.010Z,2.20
2019-03-20T06:27:08.563Z,2.30
2019-03-20T06:29:01.069Z,2.30
2019-03-20T06:30:53.624Z,2.40
2019-03-20T06:32:45.697Z,2.40
2019-03-20T06:34:38.375Z,2.50
2019-03-20T06:36:30.498Z,2.60
2019-03-20T06:38:22.723Z,2.60
2019-03-20T06:40:15.433Z,2.60
2019-03-20T06:42:07.938Z,2.70
2019-03-20T06:44:00.357Z,2.80
2019-03-20T06:45:52.977Z,2.90
2019-03-20T06:47:45.229Z,3.00
2019-03-20T06:49:37.810Z,3.20
2019-03-20T06:51:30.064Z,3.20
2019-03-20T06:53:22.716Z,3.30
2019-03-20T06:55:15.444Z,3.40
2019-03-20T06:57:07.953Z,3.50
2019-03-20T06:59:18.335Z,3.50
2019-03-20T07:01:12.238Z,3.60
2019-03-20T07:03:06.031Z,3.70
2019-03-20T07:05:16.449Z,3.80
2019-03-20T07:07:10.207Z,3.80
2019-03-20T07:09:16.463Z,4.00
2019-03-20T07:11:09.195Z,4.10
2019-03-20T07:13:01.242Z,4.10
2019-03-20T07:14:53.517Z,4.90
2019-03-20T07:16:45.930Z,5.30
2019-03-20T07:18:38.377Z,6.00
2019-03-20T07:20:30.983Z,6.50
2019-03-20T07:22:23.393Z,6.80
2019-03-20T07:24:15.675Z,6.80
2019-03-20T07:26:08.365Z,7.20
2019-03-20T07:28:00.734Z,7.70
2019-03-20T07:29:52.779Z,7.90
2019-03-20T07:31:45.084Z,7.90
2019-03-20T07:33:37.570Z,7.90
2019-03-20T07:35:31.208Z,7.90
2019-03-20T07:37:23.591Z,8.20
2019-03-20T07:39:15.677Z,7.50
2019-03-20T07:41:07.699Z,6.90
2019-03-20T07:43:08.235Z,6.50
2019-03-20T07:44:53.848Z,6.30
2019-03-20T07:46:46.338Z,6.20
2019-03-20T07:48:41.796Z,6.20
2019-03-20T07:50:33.949Z,6.30
2019-03-20T07:52:26.472Z,6.50
2019-03-20T07:54:18.892Z,6.50
2019-03-20T07:56:11.487Z,6.40
2019-03-20T07:58:04.305Z,6.70
2019-03-20T07:59:56.321Z,6.70
2019-03-20T08:01:48.887Z,6.90
2019-03-20T08:03:41.528Z,6.60
2019-03-20T08:05:33.533Z,6.70
2019-03-20T08:07:25.725Z,6.70
2019-03-20T08:09:17.953Z,6.80
2019-03-20T08:11:10.419Z,6.50
2019-03-20T08:13:02.848Z,6.70
2019-03-20T08:14:55.031Z,6.80
2019-03-20T08:16:47.581Z,6.80
2019-03-20T08:18:39.881Z,6.90
2019-03-20T08:20:32.325Z,6.60
2019-03-20T08:22:24.467Z,6.50
2019-03-20T08:24:16.999Z,6.50
2019-03-20T08:26:10.258Z,6.50
2019-03-20T08:28:02.540Z,6.60
2019-03-20T08:29:54.836Z,6.60
2019-03-20T08:31:47.380Z,6.60
2019-03-20T08:33:39.770Z,7.00
2019-03-20T08:35:32.693Z,7.20
2019-03-20T08:37:24.924Z,7.50
2019-03-20T08:39:17.115Z,7.60
2019-03-20T08:41:09.351Z,7.50
2019-03-20T08:43:14.260Z,7.70
2019-03-20T08:45:08.515Z,8.00
2019-03-20T08:47:01.023Z,8.00
2019-03-20T08:48:53.579Z,7.70
2019-03-20T08:50:45.892Z,7.90
2019-03-20T08:52:38.124Z,8.10
2019-03-20T08:54:30.702Z,7.90
2019-03-20T08:56:23.006Z,7.50
2019-03-20T08:58:15.713Z,7.40
2019-03-20T09:00:09.901Z,7.60
2019-03-20T09:02:02.216Z,7.50
2019-03-20T09:03:54.851Z,7.60
2019-03-20T09:05:47.327Z,7.80
2019-03-20T09:07:47.136Z,8.10
2019-03-20T09:09:33.948Z,8.20
2019-03-20T09:11:26.429Z,8.40
2019-03-20T09:13:18.695Z,8.60
2019-03-20T09:15:11.928Z,8.60
2019-03-20T09:17:04.184Z,8.40
2019-03-20T09:18:56.475Z,8.10
2019-03-20T09:20:49.131Z,8.00
2019-03-20T09:22:41.237Z,8.00
2019-03-20T09:24:33.209Z,8.00
2019-03-20T09:26:25.124Z,8.00
2019-03-20T09:28:17.433Z,8.10
2019-03-20T09:30:12.382Z,8.40
2019-03-20T09:32:05.173Z,8.00
2019-03-20T09:33:57.669Z,7.90
2019-03-20T09:35:50.299Z,7.70
2019-03-20T09:37:51.191Z,7.50
2019-03-20T09:39:36.573Z,7.60
2019-03-20T09:41:28.875Z,7.70
2019-03-20T09:43:20.746Z,7.90
2019-03-20T09:45:14.053Z,8.50
2019-03-20T09:47:06.293Z,8.60
2019-03-20T09:48:58.332Z,8.70
2019-03-20T09:50:50.818Z,8.30
2019-03-20T09:52:42.736Z,8.60
2019-03-20T09:54:35.028Z,9.10
2019-03-20T09:56:27.654Z,8.60
2019-03-20T09:58:19.780Z,8.70
2019-03-20T10:00:25.068Z,9.00
2019-03-20T10:02:17.327Z,9.10
2019-03-20T10:04:09.631Z,9.20
2019-03-20T10:06:01.599Z,9.40
2019-03-20T10:07:53.879Z,9.20
2019-03-20T10:09:45.980Z,9.20
2019-03-20T10:11:38.365Z,8.90
2019-03-20T10:13:30.796Z,8.40
2019-03-20T10:15:26.849Z,8.30
2019-03-20T10:17:19.364Z,8.30
2019-03-20T10:19:11.831Z,8.20
2019-03-20T10:23:14.665Z,7.80
2019-03-20T10:25:08.153Z,7.80
2019-03-20T10:27:00.674Z,8.10
2019-03-20T10:28:53.350Z,8.10
2019-03-20T10:30:45.950Z,8.20
2019-03-20T10:32:38.729Z,8.20
2019-03-20T10:34:39.193Z,8.20
2019-03-20T10:36:25.241Z,8.30
2019-03-20T10:38:17.946Z,8.50
2019-03-20T10:40:12.236Z,8.40
2019-03-20T10:42:04.487Z,8.40
2019-03-20T10:43:57.336Z,8.30
2019-03-20T10:45:49.943Z,8.10
2019-03-20T10:47:42.266Z,8.00
2019-03-20T10:49:34.726Z,7.90
2019-03-20T10:51:27.419Z,7.90
2019-03-20T10:53:19.711Z,8.20
2019-03-20T10:55:12.376Z,8.60
2019-03-20T10:57:04.491Z,8.80
2019-03-20T10:58:57.356Z,9.30
2019-03-20T11:00:49.862Z,9.10
2019-03-20T11:02:42.562Z,8.50
2019-03-20T11:04:35.183Z,8.50
2019-03-20T11:06:27.759Z,8.70
2019-03-20T11:08:20.642Z,9.10
2019-03-20T11:10:14.442Z,9.10
2019-03-20T11:12:06.823Z,9.20
2019-03-20T11:13:59.169Z,8.90
2019-03-20T11:15:51.703Z,8.80
2019-03-20T11:17:44.393Z,8.90
2019-03-20T11:19:36.708Z,9.00
2019-03-20T11:21:29.364Z,9.50
2019-03-20T11:23:21.947Z,9.70
2019-03-20T11:25:15.611Z,9.90
2019-03-20T11:27:09.055Z,9.80
2019-03-20T11:29:01.723Z,9.60
2019-03-20T11:30:54.520Z,9.40
2019-03-20T11:32:47.270Z,9.40
2019-03-20T11:34:39.620Z,9.10
2019-03-20T11:36:31.996Z,9.00
2019-03-20T11:38:24.423Z,9.20
2019-03-20T11:40:18.480Z,9.10
2019-03-20T11:42:11.660Z,9.50
2019-03-20T11:44:04.259Z,9.50
2019-03-20T11:45:56.576Z,9.70
2019-03-20T11:47:49.198Z,10.00
2019-03-20T11:49:41.425Z,10.20
2019-03-20T11:51:34.159Z,10.40
2019-03-20T11:53:26.604Z,10.40
2019-03-20T11:55:19.517Z,10.20
2019-03-20T11:57:11.961Z,10.00
2019-03-20T11:59:04.716Z,9.80
2019-03-20T12:00:57.032Z,10.00
2019-03-20T12:02:49.891Z,10.30
2019-03-20T12:04:42.112Z,10.00
2019-03-20T12:06:34.855Z,9.90
2019-03-20T12:08:27.412Z,9.60
2019-03-20T12:10:21.445Z,9.70
2019-03-20T12:12:13.717Z,10.10
2019-03-20T12:14:06.247Z,10.20
2019-03-20T12:15:58.605Z,10.40
2019-03-20T12:17:51.612Z,10.40
2019-03-20T12:19:45.106Z,10.70
2019-03-20T12:21:37.527Z,10.90
2019-03-20T12:23:30.073Z,10.90
2019-03-20T12:25:23.835Z,11.00
2019-03-20T12:27:17.349Z,10.80
2019-03-20T12:29:09.751Z,10.60
2019-03-20T12:31:02.320Z,11.20
2019-03-20T12:32:54.629Z,11.50
2019-03-20T12:34:47.171Z,11.30
2019-03-20T12:36:39.959Z,10.90
2019-03-20T12:38:33.407Z,11.20
2019-03-20T12:40:26.342Z,11.50
2019-03-20T12:42:18.811Z,12.40
2019-03-20T12:44:11.471Z,13.60
2019-03-20T12:46:04.184Z,14.50
2019-03-20T12:47:56.653Z,13.90
2019-03-20T12:49:49.967Z,13.60
2019-03-20T12:51:42.854Z,13.30
2019-03-20T12:53:35.752Z,13.50
2019-03-20T12:55:31.061Z,13.60
2019-03-20T12:57:23.162Z,13.40
2019-03-20T12:59:15.700Z,12.80
2019-03-20T13:01:07.923Z,12.60
2019-03-20T13:03:00.602Z,13.30
2019-03-20T13:04:52.912Z,14.60
2019-03-20T13:06:45.522Z,14.20
2019-03-20T13:08:38.338Z,13.40
2019-03-20T13:10:31.007Z,13.40
2019-03-20T13:12:23.624Z,13.50
2019-03-20T13:14:16.241Z,13.50
2019-03-20T13:16:08.917Z,15.10
2019-03-20T13:18:01.159Z,14.40
2019-03-20T13:19:53.765Z,14.40
2019-03-20T13:21:47.633Z,14.10
2019-03-20T13:23:40.222Z,14.00
2019-03-20T13:25:32.811Z,12.90
2019-03-20T13:27:25.499Z,12.40
2019-03-20T13:29:18.092Z,12.00
2019-03-20T13:31:14.976Z,11.40
2019-03-20T13:33:07.526Z,11.30
2019-03-20T13:34:59.903Z,10.70
2019-03-20T13:36:52.150Z,11.00
2019-03-20T13:38:44.602Z,11.40
2019-03-20T13:40:37.242Z,11.40
2019-03-20T13:42:29.930Z,11.50
2019-03-20T13:44:22.751Z,11.60
2019-03-20T13:46:15.040Z,12.00
2019-03-20T13:48:07.423Z,12.20
2019-03-20T13:49:59.982Z,12.70
2019-03-20T13:51:52.416Z,12.70
2019-03-20T13:53:44.468Z,13.10
2019-03-20T13:55:36.640Z,12.70
2019-03-20T13:57:28.966Z,12.40
2019-03-20T13:59:21.761Z,12.50
2019-03-20T14:01:14.088Z,12.20
2019-03-20T14:03:06.671Z,12.40
2019-03-20T14:04:59.292Z,12.40
2019-03-20T14:06:51.807Z,12.30
2019-03-20T14:08:44.439Z,12.10
2019-03-20T14:10:49.648Z,11.80
2019-03-20T14:12:33.480Z,12.30
2019-03-20T14:14:26.817Z,12.20
2019-03-20T14:16:19.393Z,12.20
2019-03-20T14:18:11.560Z,12.90
2019-03-20T14:20:05.380Z,12.20
2019-03-20T14:21:57.756Z,12.30
2019-03-20T14:23:50.367Z,12.10
2019-03-20T14:25:43.140Z,13.10
2019-03-20T14:27:35.508Z,12.40
2019-03-20T14:29:28.144Z,12.40
2019-03-20T14:31:20.893Z,12.10
2019-03-20T14:33:13.352Z,12.70
2019-03-20T14:35:07.398Z,12.60
2019-03-20T14:37:00.083Z,12.50
2019-03-20T14:38:52.460Z,12.60
2019-03-20T14:40:44.891Z,13.10
2019-03-20T14:42:37.383Z,13.40
2019-03-20T14:44:30.192Z,14.10
2019-03-20T14:46:22.865Z,13.80
2019-03-20T14:48:15.216Z,13.70
2019-03-20T14:50:09.276Z,13.60
2019-03-20T14:52:01.799Z,14.00
2019-03-20T14:53:54.230Z,13.50
2019-03-20T14:55:46.657Z,13.90
2019-03-20T14:57:39.275Z,14.20
2019-03-20T14:59:31.569Z,13.80
2019-03-20T15:01:24.298Z,13.30
2019-03-20T15:03:16.916Z,12.80
2019-03-20T15:05:09.171Z,12.70
2019-03-20T15:07:01.491Z,12.70
2019-03-20T15:08:54.144Z,13.50
2019-03-20T15:10:46.779Z,13.50
2019-03-20T15:12:38.946Z,13.30
2019-03-20T15:14:31.613Z,12.80
2019-03-20T15:16:24.703Z,12.80
2019-03-20T15:18:17.499Z,12.50
2019-03-20T15:20:09.996Z,12.70
2019-03-20T15:22:03.323Z,12.80
2019-03-20T15:23:55.631Z,12.30
2019-03-20T15:25:48.019Z,12.30
2019-03-20T15:27:40.723Z,12.00
2019-03-20T15:29:33.256Z,12.00
2019-03-20T15:31:25.635Z,12.30
2019-03-20T15:33:18.501Z,12.80
2019-03-20T15:35:10.892Z,13.20
2019-03-20T15:37:03.047Z,12.50
2019-03-20T15:38:55.700Z,11.70
2019-03-20T15:40:55.846Z,11.20
2019-03-20T15:42:42.170Z,10.80
2019-03-20T15:44:34.797Z,10.30
2019-03-20T15:46:27.529Z,10.00
2019-03-20T15:48:20.160Z,10.10
2019-03-20T15:50:16.846Z,10.20
2019-03-20T15:52:09.343Z,10.10
2019-03-20T15:54:02.008Z,9.70
2019-03-20T15:55:54.648Z,9.60
2019-03-20T15:57:47.199Z,9.70
2019-03-20T15:59:39.774Z,9.60
2019-03-20T16:01:32.311Z,9.30
2019-03-20T16:03:26.613Z,9.20
2019-03-20T16:05:19.118Z,9.40
2019-03-20T16:07:11.424Z,9.50
2019-03-20T16:09:05.525Z,9.60
2019-03-20T16:11:06.282Z,9.90
2019-03-20T16:12:52.042Z,10.10
2019-03-20T16:14:44.719Z,9.90
2019-03-20T16:16:37.058Z,9.80
2019-03-20T16:18:29.716Z,9.80
2019-03-20T16:20:22.407Z,10.00
2019-03-20T16:22:14.601Z,10.20
2019-03-20T16:24:06.938Z,10.40
2019-03-20T16:25:59.258Z,10.10
2019-03-20T16:27:51.615Z,10.00
2019-03-20T16:29:44.033Z,9.80
2019-03-20T16:31:36.743Z,9.80
2019-03-20T16:33:29.237Z,9.60
2019-03-20T16:35:21.553Z,9.30
2019-03-20T16:37:14.416Z,9.10
2019-03-20T16:39:07.475Z,9.10
2019-03-20T16:41:00.085Z,8.90
2019-03-20T16:42:52.789Z,8.90
2019-03-20T16:44:45.109Z,8.60
2019-03-20T16:46:37.847Z,8.60
2019-03-20T16:48:30.255Z,8.60
2019-03-20T16:50:22.466Z,8.50
2019-03-20T16:52:15.943Z,8.50
2019-03-20T16:54:08.248Z,8.40
2019-03-20T16:56:01.010Z,8.40
2019-03-20T16:57:53.622Z,8.30
2019-03-20T16:59:47.031Z,8.20
2019-03-20T17:01:39.435Z,8.10
2019-03-20T17:03:32.251Z,8.10
2019-03-20T17:05:25.988Z,8.10
2019-03-20T17:07:18.658Z,8.00
2019-03-20T17:09:11.046Z,8.00
2019-03-20T17:11:03.564Z,8.00
2019-03-20T17:12:56.187Z,8.00
2019-03-20T17:14:49.073Z,7.90
2019-03-20T17:16:42.791Z,7.90
2019-03-20T17:18:35.927Z,7.90
2019-03-20T17:20:28.447Z,7.80
2019-03-20T17:22:21.030Z,7.80
2019-03-20T17:24:13.612Z,7.70
2019-03-20T17:26:06.179Z,7.70
2019-03-20T17:27:59.211Z,7.70
2019-03-20T17:29:51.518Z,7.60
2019-03-20T17:31:44.250Z,7.50
2019-03-20T17:33:36.612Z,7.50
2019-03-20T17:35:28.814Z,7.40
2019-03-20T17:37:21.284Z,7.40
2019-03-20T17:39:13.629Z,7.50
2019-03-20T17:41:05.976Z,7.40
2019-03-20T17:42:59.262Z,7.40
2019-03-20T17:44:51.647Z,7.30
2019-03-20T17:46:44.258Z,7.40
2019-03-20T17:48:36.812Z,7.20
2019-03-20T17:50:29.890Z,7.30
2019-03-20T17:52:22.527Z,7.20
2019-03-20T17:54:15.201Z,7.20
2019-03-20T17:56:07.978Z,7.20
2019-03-20T17:58:00.414Z,7.10
2019-03-20T17:59:52.969Z,7.10
2019-03-20T18:01:45.456Z,7.10
2019-03-20T18:03:37.551Z,7.00
2019-03-20T18:05:30.015Z,7.00
2019-03-20T18:07:22.224Z,7.00
2019-03-20T18:09:14.944Z,7.00
2019-03-20T18:11:07.373Z,7.10
2019-03-20T18:13:00.019Z,7.00
2019-03-20T18:14:52.384Z,7.10
2019-03-20T18:16:44.927Z,7.00
2019-03-20T18:18:37.529Z,7.00
2019-03-20T18:20:31.393Z,6.90
2019-03-20T18:22:24.867Z,6.80
2019-03-20T18:24:17.667Z,6.80
2019-03-20T18:26:10.288Z,6.90
2019-03-20T18:28:02.861Z,6.90
2019-03-20T18:29:55.022Z,6.80
2019-03-20T18:31:47.845Z,6.80
2019-03-20T18:33:39.804Z,6.80
2019-03-20T18:35:32.003Z,6.70
2019-03-20T18:37:24.552Z,6.70
2019-03-20T18:39:16.780Z,6.70
2019-03-20T18:41:08.781Z,6.70
2019-03-20T18:43:00.753Z,6.70
2019-03-20T18:44:53.128Z,6.70
2019-03-20T18:46:45.034Z,6.70
2019-03-20T18:48:37.240Z,6.60
2019-03-20T18:50:29.325Z,6.40
2019-03-20T18:52:22.921Z,6.40
2019-03-20T18:54:15.188Z,6.50
2019-03-20T18:56:07.429Z,6.50
2019-03-20T18:57:59.574Z,6.50
2019-03-20T18:59:51.813Z,6.40
2019-03-20T19:01:44.693Z,6.40
2019-03-20T19:03:41.816Z,6.40
2019-03-20T19:05:38.927Z,6.30
2019-03-20T19:07:32.742Z,6.30
2019-03-20T19:09:25.478Z,6.30
2019-03-20T19:11:17.746Z,6.30
2019-03-20T19:13:11.177Z,6.30
2019-03-20T19:15:05.547Z,6.20
2019-03-20T19:16:57.944Z,6.20
2019-03-20T19:18:50.316Z,6.20
2019-03-20T19:20:43.699Z,6.30
2019-03-20T19:22:36.610Z,6.40
2019-03-20T19:24:30.605Z,6.30
2019-03-20T19:26:24.669Z,6.20
2019-03-20T19:28:19.610Z,6.20
2019-03-20T19:30:24.618Z,6.20
2019-03-20T19:32:19.629Z,6.20
2019-03-20T19:34:15.064Z,6.10
2019-03-20T19:36:09.005Z,6.10
2019-03-20T19:38:03.126Z,6.20
2019-03-20T19:39:57.282Z,6.20
2019-03-20T19:41:51.497Z,6.20
2019-03-20T19:43:46.004Z,6.20
2019-03-20T19:45:40.441Z,6.10
2019-03-20T19:47:34.760Z,6.10
2019-03-20T19:49:29.099Z,6.00
2019-03-20T19:51:23.560Z,6.00
2019-03-20T19:53:18.514Z,6.00
2019-03-20T19:55:13.136Z,6.00
2019-03-20T19:57:07.170Z,5.90
2019-03-20T19:59:00.926Z,5.90
2019-03-20T20:00:54.619Z,5.80
2019-03-20T20:02:49.503Z,5.80
2019-03-20T20:04:43.900Z,5.80
2019-03-20T20:06:37.583Z,5.80
2019-03-20T20:08:32.164Z,5.80
2019-03-20T20:10:26.244Z,5.80
2019-03-20T20:12:30.829Z,5.90
2019-03-20T20:14:17.187Z,5.90
2019-03-20T20:16:11.035Z,5.90
2019-03-20T20:18:05.410Z,5.90
2019-03-20T20:19:59.436Z,5.80
2019-03-20T20:21:53.627Z,5.80
2019-03-20T20:23:48.642Z,5.80
2019-03-20T20:25:42.949Z,5.60
2019-03-20T20:27:37.127Z,5.50
2019-03-20T20:29:31.580Z,5.50
2019-03-20T20:31:25.396Z,5.50
2019-03-20T20:33:19.647Z,5.40
2019-03-20T20:35:14.498Z,5.40
2019-03-20T20:37:09.471Z,5.30
2019-03-20T20:39:07.271Z,5.30
2019-03-20T20:41:02.009Z,5.30
2019-03-20T20:42:55.732Z,5.30
2019-03-20T20:44:49.929Z,5.40
2019-03-20T20:46:45.090Z,5.40
2019-03-20T20:48:40.574Z,5.30
2019-03-20T20:50:34.866Z,5.30
2019-03-20T20:52:29.102Z,5.30
2019-03-20T20:54:23.451Z,5.30
2019-03-20T20:56:18.385Z,5.20
2019-03-20T20:58:12.511Z,5.20
2019-03-20T21:00:15.247Z,5.20
2019-03-20T21:02:09.430Z,5.20
2019-03-20T21:04:03.511Z,5.10
2019-03-20T21:05:57.826Z,5.10
2019-03-20T21:07:52.561Z,5.00
2019-03-20T21:09:45.872Z,5.00
2019-03-20T21:11:38.522Z,5.00
2019-03-20T21:13:31.045Z,5.00
2019-03-20T21:15:35.106Z,5.00
2019-03-20T21:17:29.808Z,5.00
2019-03-20T21:19:37.344Z,5.00
2019-03-20T21:21:31.516Z,5.00
2019-03-20T21:23:38.389Z,5.00
2019-03-20T21:25:30.547Z,5.00
2019-03-20T21:27:41.090Z,4.90
2019-03-20T21:29:51.398Z,4.90
2019-03-20T21:31:52.108Z,4.90
2019-03-20T21:34:01.076Z,4.90
2019-03-20T21:36:07.265Z,4.80
2019-03-20T21:38:06.721Z,4.80
2019-03-20T21:39:59.019Z,4.90
2019-03-20T21:42:09.451Z,4.80
2019-03-20T21:44:03.286Z,4.80
2019-03-20T21:46:13.726Z,4.70
2019-03-20T21:48:06.273Z,4.80
2019-03-20T21:49:59.797Z,4.80
2019-03-20T21:51:52.096Z,4.80
2019-03-20T21:53:48.721Z,4.80
2019-03-20T21:55:59.580Z,4.80
2019-03-20T21:57:56.792Z,4.80
2019-03-20T22:00:07.612Z,4.70
2019-03-20T22:02:10.934Z,4.70
2019-03-20T22:04:03.217Z,4.70
2019-03-20T22:06:05.674Z,4.70
2019-03-20T22:07:57.943Z,4.60
2019-03-20T22:09:51.568Z,4.60
2019-03-20T22:12:01.833Z,4.60
2019-03-20T22:13:59.084Z,4.60
2019-03-20T22:16:02.124Z,4.60
2019-03-20T22:18:10.859Z,4.50
2019-03-20T22:20:04.576Z,4.60
2019-03-20T22:22:15.240Z,4.40
2019-03-20T22:24:25.411Z,4.50
2019-03-20T22:26:35.785Z,4.50
2019-03-20T22:28:44.735Z,4.50
2019-03-20T22:30:36.985Z,4.40
2019-03-20T22:32:30.511Z,4.40
2019-03-20T22:34:24.221Z,4.40
2019-03-20T22:36:16.140Z,4.40
2019-03-20T22:38:10.060Z,4.40
2019-03-20T22:40:15.990Z,4.30
2019-03-20T22:42:12.812Z,4.30
2019-03-20T22:44:05.054Z,4.30
2019-03-20T22:46:08.077Z,4.30
2019-03-20T22:48:11.180Z,4.30
2019-03-20T22:50:17.329Z,4.30
2019-03-20T22:52:11.161Z,4.30
2019-03-20T22:54:07.611Z,4.30
2019-03-20T22:56:16.613Z,4.30
2019-03-20T22:58:09.988Z,4.20
2019-03-20T23:00:02.203Z,4.30
2019-03-20T23:01:57.449Z,4.20
2019-03-20T23:03:50.907Z,4.20
2019-03-20T23:05:42.972Z,4.20
2019-03-20T23:07:35.111Z,4.10
2019-03-20T23:09:27.418Z,4.10
2019-03-20T23:11:20.871Z,4.10
2019-03-20T23:13:18.851Z,4.10
2019-03-20T23:15:11.205Z,4.10
2019-03-20T23:17:03.217Z,4.00
2019-03-20T23:18:55.681Z,4.00
2019-03-20T23:20:47.823Z,4.00
2019-03-20T23:22:40.552Z,4.10
2019-03-20T23:24:32.700Z,4.10
2019-03-20T23:26:25.060Z,4.00
2019-03-20T23:28:17.279Z,4.00
2019-03-20T23:30:10.616Z,3.90
2019-03-20T23:32:02.959Z,3.90
2019-03-20T23:33:55.428Z,3.90
2019-03-20T23:35:47.335Z,3.90
2019-03-20T23:37:39.432Z,4.00
2019-03-20T23:39:31.918Z,3.90
2019-03-20T23:41:24.038Z,3.90
2019-03-20T23:43:16.090Z,3.90
2019-03-20T23:45:09.876Z,3.80
2019-03-20T23:47:02.347Z,3.80
2019-03-20T23:48:55.632Z,3.70
2019-03-20T23:50:49.707Z,3.70
2019-03-20T23:52:41.571Z,3.80
2019-03-20T23:54:35.790Z,3.70
2019-03-20T23:56:29.551Z,3.70
2019-03-20T23:58:22.122Z,3.70
